Clarcona, Florida
Current Conditions -  °F | °C
As of 10:53 AM on Wednesday 28 Jan 2015 (Local Time) from KORL Reporting Station
Clear Clear  
Wind Chill: 54°   Ceiling: Unl
Heat Index: 54°   Visibility: 10mi
Dew Point: 34°   Wind: 8mph
Humidity: 47%   Direction: 330°NNW
Pressure: 30.23"   Gusts: NA
Location:  28.61°N, 81.5°W
Report Text: KORL 281553Z 33007KT 10SM CLR 12/01 A3023 RMK AO2 SLP242 T01220011
Loading
Personal Weather Stations






























Interactive Weather Map New forecast layout! Learn more

10-Day Weather Forecast

Advertisements
Track Severe Weather on mobile